sensor_id;sensor_type;location;lat;lon;timestamp;P1;durP1;ratioP1;P2;durP2;ratioP2
32152;SDS011;18656;50.580;11.392;2024-02-16T00:01:30;2.55;;;2.35;;
32152;SDS011;18656;50.580;11.392;2024-02-16T00:03:57;4.18;;;2.40;;
32152;SDS011;18656;50.580;11.392;2024-02-16T00:06:24;5.47;;;2.72;;
32152;SDS011;18656;50.580;11.392;2024-02-16T00:08:52;3.83;;;2.22;;
32152;SDS011;18656;50.580;11.392;2024-02-16T00:11:19;4.53;;;2.33;;
32152;SDS011;18656;50.580;11.392;2024-02-16T00:13:46;2.00;;;1.90;;
32152;SDS011;18656;50.580;11.392;2024-02-16T00:16:13;3.22;;;2.08;;
32152;SDS011;18656;50.580;11.392;2024-02-16T00:18:41;3.63;;;2.10;;
32152;SDS011;18656;50.580;11.392;2024-02-16T00:21:08;6.18;;;2.25;;
32152;SDS011;18656;50.580;11.392;2024-02-16T00:23:35;2.58;;;2.08;;
32152;SDS011;18656;50.580;11.392;2024-02-16T00:26:03;2.47;;;2.03;;
32152;SDS011;18656;50.580;11.392;2024-02-16T00:28:33;1.95;;;1.70;;
32152;SDS011;18656;50.580;11.392;2024-02-16T00:31:00;7.03;;;1.85;;
32152;SDS011;18656;50.580;11.392;2024-02-16T00:33:28;4.63;;;1.70;;
32152;SDS011;18656;50.580;11.392;2024-02-16T00:35:56;1.83;;;1.73;;
32152;SDS011;18656;50.580;11.392;2024-02-16T00:38:23;2.00;;;1.73;;
32152;SDS011;18656;50.580;11.392;2024-02-16T00:40:50;2.95;;;1.90;;
32152;SDS011;18656;50.580;11.392;2024-02-16T00:43:17;2.10;;;1.80;;
32152;SDS011;18656;50.580;11.392;2024-02-16T00:45:45;4.13;;;1.98;;
32152;SDS011;18656;50.580;11.392;2024-02-16T00:48:12;4.13;;;1.52;;
32152;SDS011;18656;50.580;11.392;2024-02-16T00:50:40;2.78;;;1.88;;
32152;SDS011;18656;50.580;11.392;2024-02-16T00:53:09;3.38;;;1.58;;
32152;SDS011;18656;50.580;11.392;2024-02-16T00:55:37;2.35;;;1.52;;
32152;SDS011;18656;50.580;11.392;2024-02-16T00:58:04;2.20;;;1.70;;
32152;SDS011;18656;50.580;11.392;2024-02-16T01:00:32;2.78;;;1.52;;
32152;SDS011;18656;50.580;11.392;2024-02-16T01:02:59;5.30;;;1.80;;
32152;SDS011;18656;50.580;11.392;2024-02-16T01:05:26;1.40;;;1.30;;
32152;SDS011;18656;50.580;11.392;2024-02-16T01:07:54;2.22;;;1.55;;
32152;SDS011;18656;50.580;11.392;2024-02-16T01:10:21;1.92;;;1.48;;
32152;SDS011;18656;50.580;11.392;2024-02-16T01:12:49;3.90;;;1.73;;
32152;SDS011;18656;50.580;11.392;2024-02-16T01:15:18;1.73;;;1.20;;
32152;SDS011;18656;50.580;11.392;2024-02-16T01:17:46;2.13;;;1.48;;
32152;SDS011;18656;50.580;11.392;2024-02-16T01:20:13;4.43;;;1.35;;
32152;SDS011;18656;50.580;11.392;2024-02-16T01:22:41;2.13;;;1.30;;
32152;SDS011;18656;50.580;11.392;2024-02-16T01:25:09;2.45;;;1.35;;
32152;SDS011;18656;50.580;11.392;2024-02-16T01:27:36;3.85;;;1.38;;
32152;SDS011;18656;50.580;11.392;2024-02-16T01:30:03;3.38;;;1.40;;
32152;SDS011;18656;50.580;11.392;2024-02-16T01:32:31;3.28;;;1.40;;
32152;SDS011;18656;50.580;11.392;2024-02-16T01:34:58;4.50;;;1.70;;
32152;SDS011;18656;50.580;11.392;2024-02-16T01:37:26;1.55;;;1.42;;
32152;SDS011;18656;50.580;11.392;2024-02-16T01:39:53;2.88;;;1.75;;
32152;SDS011;18656;50.580;11.392;2024-02-16T01:42:20;2.58;;;1.42;;
32152;SDS011;18656;50.580;11.392;2024-02-16T01:44:47;1.35;;;1.23;;
32152;SDS011;18656;50.580;11.392;2024-02-16T01:47:15;1.65;;;1.30;;
32152;SDS011;18656;50.580;11.392;2024-02-16T01:49:42;1.67;;;1.45;;
32152;SDS011;18656;50.580;11.392;2024-02-16T01:52:10;2.53;;;1.67;;
32152;SDS011;18656;50.580;11.392;2024-02-16T01:54:38;2.03;;;1.70;;
32152;SDS011;18656;50.580;11.392;2024-02-16T01:57:05;2.28;;;1.40;;
32152;SDS011;18656;50.580;11.392;2024-02-16T01:59:34;1.92;;;1.30;;
32152;SDS011;18656;50.580;11.392;2024-02-16T02:02:03;0.93;;;0.93;;
32152;SDS011;18656;50.580;11.392;2024-02-16T02:04:30;1.65;;;1.20;;
32152;SDS011;18656;50.580;11.392;2024-02-16T02:06:58;3.72;;;1.30;;
32152;SDS011;18656;50.580;11.392;2024-02-16T02:09:25;1.02;;;1.02;;
32152;SDS011;18656;50.580;11.392;2024-02-16T02:11:52;2.60;;;1.73;;
32152;SDS011;18656;50.580;11.392;2024-02-16T02:14:21;1.35;;;1.25;;
32152;SDS011;18656;50.580;11.392;2024-02-16T02:16:52;2.40;;;1.17;;
32152;SDS011;18656;50.580;11.392;2024-02-16T02:19:24;1.48;;;1.33;;
32152;SDS011;18656;50.580;11.392;2024-02-16T02:21:52;1.67;;;1.42;;
32152;SDS011;18656;50.580;11.392;2024-02-16T02:24:19;2.90;;;1.60;;
32152;SDS011;18656;50.580;11.392;2024-02-16T02:26:47;1.50;;;1.38;;
32152;SDS011;18656;50.580;11.392;2024-02-16T02:29:14;2.17;;;1.52;;
32152;SDS011;18656;50.580;11.392;2024-02-16T02:31:41;1.92;;;1.30;;
32152;SDS011;18656;50.580;11.392;2024-02-16T02:34:09;4.22;;;1.65;;
32152;SDS011;18656;50.580;11.392;2024-02-16T02:36:37;1.77;;;1.67;;
32152;SDS011;18656;50.580;11.392;2024-02-16T02:39:04;2.03;;;1.77;;
32152;SDS011;18656;50.580;11.392;2024-02-16T02:41:32;3.60;;;1.30;;
32152;SDS011;18656;50.580;11.392;2024-02-16T02:43:59;3.72;;;1.52;;
32152;SDS011;18656;50.580;11.392;2024-02-16T02:46:26;3.00;;;1.52;;
32152;SDS011;18656;50.580;11.392;2024-02-16T02:48:54;2.47;;;1.77;;
32152;SDS011;18656;50.580;11.392;2024-02-16T02:51:21;4.03;;;1.90;;
32152;SDS011;18656;50.580;11.392;2024-02-16T02:53:50;5.38;;;2.53;;
32152;SDS011;18656;50.580;11.392;2024-02-16T02:56:17;3.60;;;1.42;;
32152;SDS011;18656;50.580;11.392;2024-02-16T02:58:44;3.10;;;1.52;;
32152;SDS011;18656;50.580;11.392;2024-02-16T03:01:12;5.28;;;1.90;;
32152;SDS011;18656;50.580;11.392;2024-02-16T03:03:40;2.97;;;1.83;;
32152;SDS011;18656;50.580;11.392;2024-02-16T03:06:09;1.80;;;1.60;;
32152;SDS011;18656;50.580;11.392;2024-02-16T03:08:36;1.63;;;1.52;;
32152;SDS011;18656;50.580;11.392;2024-02-16T03:11:03;2.00;;;1.80;;
32152;SDS011;18656;50.580;11.392;2024-02-16T03:13:31;2.45;;;1.55;;
32152;SDS011;18656;50.580;11.392;2024-02-16T03:15:59;2.05;;;1.40;;
32152;SDS011;18656;50.580;11.392;2024-02-16T03:18:30;1.73;;;1.55;;
32152;SDS011;18656;50.580;11.392;2024-02-16T03:20:58;2.58;;;1.45;;
32152;SDS011;18656;50.580;11.392;2024-02-16T03:23:25;3.80;;;1.30;;
32152;SDS011;18656;50.580;11.392;2024-02-16T03:25:52;3.10;;;1.35;;
32152;SDS011;18656;50.580;11.392;2024-02-16T03:28:19;1.40;;;1.30;;
32152;SDS011;18656;50.580;11.392;2024-02-16T03:30:46;1.92;;;1.50;;
32152;SDS011;18656;50.580;11.392;2024-02-16T03:33:14;1.30;;;1.20;;
32152;SDS011;18656;50.580;11.392;2024-02-16T03:35:41;2.15;;;1.38;;
32152;SDS011;18656;50.580;11.392;2024-02-16T03:38:08;1.50;;;1.40;;
32152;SDS011;18656;50.580;11.392;2024-02-16T03:40:36;1.92;;;1.30;;
32152;SDS011;18656;50.580;11.392;2024-02-16T03:43:03;1.67;;;1.52;;
32152;SDS011;18656;50.580;11.392;2024-02-16T03:45:30;1.52;;;1.20;;
32152;SDS011;18656;50.580;11.392;2024-02-16T03:47:58;3.72;;;1.42;;
32152;SDS011;18656;50.580;11.392;2024-02-16T03:50:26;3.17;;;1.45;;
32152;SDS011;18656;50.580;11.392;2024-02-16T03:52:53;2.90;;;1.40;;
32152;SDS011;18656;50.580;11.392;2024-02-16T03:55:20;1.40;;;1.10;;
32152;SDS011;18656;50.580;11.392;2024-02-16T03:57:47;1.58;;;1.40;;
32152;SDS011;18656;50.580;11.392;2024-02-16T04:00:15;1.25;;;1.15;;
32152;SDS011;18656;50.580;11.392;2024-02-16T04:02:42;2.95;;;1.70;;
32152;SDS011;18656;50.580;11.392;2024-02-16T04:05:09;1.83;;;1.40;;
32152;SDS011;18656;50.580;11.392;2024-02-16T04:07:37;3.17;;;1.25;;
32152;SDS011;18656;50.580;11.392;2024-02-16T04:10:04;6.13;;;1.90;;
32152;SDS011;18656;50.580;11.392;2024-02-16T04:12:33;3.58;;;1.40;;
32152;SDS011;18656;50.580;11.392;2024-02-16T04:15:00;1.00;;;0.90;;
32152;SDS011;18656;50.580;11.392;2024-02-16T04:17:28;2.38;;;1.52;;
32152;SDS011;18656;50.580;11.392;2024-02-16T04:19:55;4.32;;;1.40;;
32152;SDS011;18656;50.580;11.392;2024-02-16T04:22:22;1.55;;;1.45;;
32152;SDS011;18656;50.580;11.392;2024-02-16T04:24:50;2.58;;;1.10;;
32152;SDS011;18656;50.580;11.392;2024-02-16T04:27:17;1.55;;;1.40;;
32152;SDS011;18656;50.580;11.392;2024-02-16T04:29:44;1.50;;;1.40;;
32152;SDS011;18656;50.580;11.392;2024-02-16T04:32:11;2.75;;;1.27;;
32152;SDS011;18656;50.580;11.392;2024-02-16T04:34:39;2.13;;;1.40;;
32152;SDS011;18656;50.580;11.392;2024-02-16T04:37:06;2.58;;;1.70;;
32152;SDS011;18656;50.580;11.392;2024-02-16T04:39:33;4.43;;;1.80;;
32152;SDS011;18656;50.580;11.392;2024-02-16T04:42:01;1.75;;;1.52;;
32152;SDS011;18656;50.580;11.392;2024-02-16T04:44:28;1.70;;;1.60;;
32152;SDS011;18656;50.580;11.392;2024-02-16T04:46:56;1.85;;;1.35;;
32152;SDS011;18656;50.580;11.392;2024-02-16T04:49:23;5.47;;;1.40;;
32152;SDS011;18656;50.580;11.392;2024-02-16T04:51:50;1.42;;;1.33;;
32152;SDS011;18656;50.580;11.392;2024-02-16T04:54:18;2.20;;;1.52;;
32152;SDS011;18656;50.580;11.392;2024-02-16T04:56:45;8.07;;;2.05;;
32152;SDS011;18656;50.580;11.392;2024-02-16T04:59:12;1.52;;;1.40;;
32152;SDS011;18656;50.580;11.392;2024-02-16T05:01:40;2.00;;;1.13;;
32152;SDS011;18656;50.580;11.392;2024-02-16T05:04:07;1.65;;;1.55;;
32152;SDS011;18656;50.580;11.392;2024-02-16T05:06:38;1.70;;;1.60;;
32152;SDS011;18656;50.580;11.392;2024-02-16T05:09:07;2.38;;;1.50;;
32152;SDS011;18656;50.580;11.392;2024-02-16T05:11:34;1.75;;;1.50;;
32152;SDS011;18656;50.580;11.392;2024-02-16T05:14:01;1.95;;;1.77;;
32152;SDS011;18656;50.580;11.392;2024-02-16T05:16:29;2.97;;;1.98;;
32152;SDS011;18656;50.580;11.392;2024-02-16T05:18:59;3.60;;;1.63;;
32152;SDS011;18656;50.580;11.392;2024-02-16T05:21:26;3.30;;;2.08;;
32152;SDS011;18656;50.580;11.392;2024-02-16T05:23:53;1.98;;;1.80;;
32152;SDS011;18656;50.580;11.392;2024-02-16T05:26:21;1.98;;;1.80;;
32152;SDS011;18656;50.580;11.392;2024-02-16T05:28:49;3.15;;;2.20;;
32152;SDS011;18656;50.580;11.392;2024-02-16T05:31:17;2.70;;;2.50;;
32152;SDS011;18656;50.580;11.392;2024-02-16T05:33:48;2.63;;;2.42;;
32152;SDS011;18656;50.580;11.392;2024-02-16T05:36:17;2.65;;;2.45;;
32152;SDS011;18656;50.580;11.392;2024-02-16T05:38:46;4.40;;;2.50;;
32152;SDS011;18656;50.580;11.392;2024-02-16T05:41:15;2.60;;;2.40;;
32152;SDS011;18656;50.580;11.392;2024-02-16T05:43:44;4.38;;;2.72;;
32152;SDS011;18656;50.580;11.392;2024-02-16T05:46:15;2.88;;;2.60;;
32152;SDS011;18656;50.580;11.392;2024-02-16T05:48:42;3.20;;;2.33;;
32152;SDS011;18656;50.580;11.392;2024-02-16T05:51:10;4.90;;;2.53;;
32152;SDS011;18656;50.580;11.392;2024-02-16T05:53:41;2.65;;;2.45;;
32152;SDS011;18656;50.580;11.392;2024-02-16T05:56:08;2.67;;;2.47;;
32152;SDS011;18656;50.580;11.392;2024-02-16T05:58:36;3.70;;;2.30;;
32152;SDS011;18656;50.580;11.392;2024-02-16T06:01:03;4.05;;;2.60;;
32152;SDS011;18656;50.580;11.392;2024-02-16T06:03:31;3.88;;;2.30;;
32152;SDS011;18656;50.580;11.392;2024-02-16T06:05:58;3.95;;;2.30;;
32152;SDS011;18656;50.580;11.392;2024-02-16T06:08:26;2.60;;;2.40;;
32152;SDS011;18656;50.580;11.392;2024-02-16T06:10:56;2.08;;;1.85;;
32152;SDS011;18656;50.580;11.392;2024-02-16T06:13:23;3.13;;;2.10;;
32152;SDS011;18656;50.580;11.392;2024-02-16T06:15:50;4.88;;;2.28;;
32152;SDS011;18656;50.580;11.392;2024-02-16T06:18:17;3.10;;;2.33;;
32152;SDS011;18656;50.580;11.392;2024-02-16T06:20:45;4.97;;;3.97;;
32152;SDS011;18656;50.580;11.392;2024-02-16T06:23:13;8.18;;;6.70;;
32152;SDS011;18656;50.580;11.392;2024-02-16T06:25:43;9.13;;;6.00;;
32152;SDS011;18656;50.580;11.392;2024-02-16T06:28:10;8.75;;;7.25;;
32152;SDS011;18656;50.580;11.392;2024-02-16T06:30:38;3.33;;;3.03;;
32152;SDS011;18656;50.580;11.392;2024-02-16T06:33:05;4.53;;;3.00;;
32152;SDS011;18656;50.580;11.392;2024-02-16T06:35:33;3.67;;;1.98;;
32152;SDS011;18656;50.580;11.392;2024-02-16T06:38:00;2.10;;;2.00;;
32152;SDS011;18656;50.580;11.392;2024-02-16T06:40:27;2.47;;;2.28;;
32152;SDS011;18656;50.580;11.392;2024-02-16T06:42:56;2.75;;;2.38;;
32152;SDS011;18656;50.580;11.392;2024-02-16T06:45:23;2.38;;;2.28;;
32152;SDS011;18656;50.580;11.392;2024-02-16T06:47:52;2.83;;;2.30;;
32152;SDS011;18656;50.580;11.392;2024-02-16T06:50:19;2.53;;;2.33;;
32152;SDS011;18656;50.580;11.392;2024-02-16T06:52:47;2.45;;;2.08;;
32152;SDS011;18656;50.580;11.392;2024-02-16T06:55:14;2.85;;;2.40;;
32152;SDS011;18656;50.580;11.392;2024-02-16T06:57:42;3.70;;;2.10;;
32152;SDS011;18656;50.580;11.392;2024-02-16T07:00:10;3.75;;;1.88;;
32152;SDS011;18656;50.580;11.392;2024-02-16T07:02:38;2.60;;;2.40;;
32152;SDS011;18656;50.580;11.392;2024-02-16T07:05:07;2.53;;;2.10;;
32152;SDS011;18656;50.580;11.392;2024-02-16T07:07:35;2.38;;;1.90;;
32152;SDS011;18656;50.580;11.392;2024-02-16T07:10:02;2.90;;;2.10;;
32152;SDS011;18656;50.580;11.392;2024-02-16T07:12:31;3.22;;;1.95;;
32152;SDS011;18656;50.580;11.392;2024-02-16T07:15:00;4.38;;;2.67;;
32152;SDS011;18656;50.580;11.392;2024-02-16T07:17:29;2.70;;;2.25;;
32152;SDS011;18656;50.580;11.392;2024-02-16T07:19:56;3.92;;;2.20;;
32152;SDS011;18656;50.580;11.392;2024-02-16T07:22:24;2.75;;;2.28;;
32152;SDS011;18656;50.580;11.392;2024-02-16T07:24:51;2.00;;;1.90;;
32152;SDS011;18656;50.580;11.392;2024-02-16T07:27:18;2.60;;;2.40;;
32152;SDS011;18656;50.580;11.392;2024-02-16T07:29:45;4.75;;;4.35;;
32152;SDS011;18656;50.580;11.392;2024-02-16T07:32:13;4.75;;;3.55;;
32152;SDS011;18656;50.580;11.392;2024-02-16T07:34:40;5.30;;;4.65;;
32152;SDS011;18656;50.580;11.392;2024-02-16T07:37:07;29.33;;;16.85;;
32152;SDS011;18656;50.580;11.392;2024-02-16T07:39:35;73.43;;;36.13;;
32152;SDS011;18656;50.580;11.392;2024-02-16T07:42:02;39.03;;;21.27;;
32152;SDS011;18656;50.580;11.392;2024-02-16T07:44:30;99.65;;;50.78;;
32152;SDS011;18656;50.580;11.392;2024-02-16T07:46:57;19.05;;;11.20;;
32152;SDS011;18656;50.580;11.392;2024-02-16T07:49:24;14.30;;;7.70;;
32152;SDS011;18656;50.580;11.392;2024-02-16T07:51:51;11.65;;;7.07;;
32152;SDS011;18656;50.580;11.392;2024-02-16T07:54:19;8.85;;;5.20;;
32152;SDS011;18656;50.580;11.392;2024-02-16T07:56:46;3.22;;;2.92;;
32152;SDS011;18656;50.580;11.392;2024-02-16T07:59:16;2.78;;;2.55;;
32152;SDS011;18656;50.580;11.392;2024-02-16T08:01:45;2.70;;;2.50;;
32152;SDS011;18656;50.580;11.392;2024-02-16T08:04:12;2.65;;;2.45;;
32152;SDS011;18656;50.580;11.392;2024-02-16T08:06:39;3.15;;;2.05;;
32152;SDS011;18656;50.580;11.392;2024-02-16T08:09:07;4.65;;;2.20;;
32152;SDS011;18656;50.580;11.392;2024-02-16T08:11:34;3.83;;;2.50;;
32152;SDS011;18656;50.580;11.392;2024-02-16T08:14:02;2.25;;;2.08;;
32152;SDS011;18656;50.580;11.392;2024-02-16T08:16:29;3.33;;;2.20;;
32152;SDS011;18656;50.580;11.392;2024-02-16T08:18:56;2.60;;;1.90;;
32152;SDS011;18656;50.580;11.392;2024-02-16T08:21:24;4.13;;;2.30;;
32152;SDS011;18656;50.580;11.392;2024-02-16T08:23:51;2.75;;;2.47;;
32152;SDS011;18656;50.580;11.392;2024-02-16T08:26:19;2.50;;;2.30;;
32152;SDS011;18656;50.580;11.392;2024-02-16T08:28:47;2.65;;;2.22;;
32152;SDS011;18656;50.580;11.392;2024-02-16T08:31:15;4.15;;;1.98;;
32152;SDS011;18656;50.580;11.392;2024-02-16T08:33:45;3.90;;;3.17;;
32152;SDS011;18656;50.580;11.392;2024-02-16T08:36:14;3.60;;;2.50;;
32152;SDS011;18656;50.580;11.392;2024-02-16T08:38:42;4.35;;;2.80;;
32152;SDS011;18656;50.580;11.392;2024-02-16T08:41:09;8.75;;;3.30;;
32152;SDS011;18656;50.580;11.392;2024-02-16T08:43:36;5.13;;;3.10;;
32152;SDS011;18656;50.580;11.392;2024-02-16T08:46:04;4.95;;;2.47;;
32152;SDS011;18656;50.580;11.392;2024-02-16T08:48:31;5.50;;;2.80;;
32152;SDS011;18656;50.580;11.392;2024-02-16T08:50:58;5.22;;;2.15;;
32152;SDS011;18656;50.580;11.392;2024-02-16T08:53:28;4.93;;;3.05;;
32152;SDS011;18656;50.580;11.392;2024-02-16T08:55:56;3.13;;;2.35;;
32152;SDS011;18656;50.580;11.392;2024-02-16T08:58:23;3.33;;;2.08;;
32152;SDS011;18656;50.580;11.392;2024-02-16T09:00:50;2.75;;;2.55;;
32152;SDS011;18656;50.580;11.392;2024-02-16T09:03:18;4.28;;;2.25;;
32152;SDS011;18656;50.580;11.392;2024-02-16T09:05:45;2.97;;;2.22;;
32152;SDS011;18656;50.580;11.392;2024-02-16T09:08:12;2.60;;;2.40;;
32152;SDS011;18656;50.580;11.392;2024-02-16T09:10:40;2.40;;;2.03;;
32152;SDS011;18656;50.580;11.392;2024-02-16T09:13:07;2.45;;;2.05;;
32152;SDS011;18656;50.580;11.392;2024-02-16T09:15:35;2.05;;;1.95;;
32152;SDS011;18656;50.580;11.392;2024-02-16T09:18:03;4.25;;;2.20;;
32152;SDS011;18656;50.580;11.392;2024-02-16T09:20:31;3.78;;;1.77;;
32152;SDS011;18656;50.580;11.392;2024-02-16T09:22:58;5.55;;;2.03;;
32152;SDS011;18656;50.580;11.392;2024-02-16T09:25:26;2.85;;;1.98;;
32152;SDS011;18656;50.580;11.392;2024-02-16T09:27:53;5.03;;;2.38;;
32152;SDS011;18656;50.580;11.392;2024-02-16T09:30:21;6.00;;;2.22;;
32152;SDS011;18656;50.580;11.392;2024-02-16T09:32:48;2.83;;;1.80;;
32152;SDS011;18656;50.580;11.392;2024-02-16T09:35:15;7.03;;;2.30;;
32152;SDS011;18656;50.580;11.392;2024-02-16T09:37:43;4.13;;;2.17;;
32152;SDS011;18656;50.580;11.392;2024-02-16T09:40:11;3.05;;;1.95;;
32152;SDS011;18656;50.580;11.392;2024-02-16T09:42:39;8.52;;;2.05;;
32152;SDS011;18656;50.580;11.392;2024-02-16T09:45:07;2.97;;;1.50;;
32152;SDS011;18656;50.580;11.392;2024-02-16T09:47:34;2.17;;;1.70;;
32152;SDS011;18656;50.580;11.392;2024-02-16T09:50:02;3.13;;;2.40;;
32152;SDS011;18656;50.580;11.392;2024-02-16T09:52:31;3.72;;;1.77;;
32152;SDS011;18656;50.580;11.392;2024-02-16T09:54:58;1.75;;;1.63;;
32152;SDS011;18656;50.580;11.392;2024-02-16T09:57:25;2.00;;;1.75;;
32152;SDS011;18656;50.580;11.392;2024-02-16T09:59:53;2.10;;;1.90;;
32152;SDS011;18656;50.580;11.392;2024-02-16T10:02:20;2.20;;;2.00;;
32152;SDS011;18656;50.580;11.392;2024-02-16T10:04:48;1.83;;;1.73;;
32152;SDS011;18656;50.580;11.392;2024-02-16T10:07:15;2.58;;;2.20;;
32152;SDS011;18656;50.580;11.392;2024-02-16T10:09:42;2.10;;;1.88;;
32152;SDS011;18656;50.580;11.392;2024-02-16T10:12:10;1.60;;;1.50;;
32152;SDS011;18656;50.580;11.392;2024-02-16T10:14:38;8.85;;;2.50;;
32152;SDS011;18656;50.580;11.392;2024-02-16T10:17:07;2.08;;;1.60;;
32152;SDS011;18656;50.580;11.392;2024-02-16T10:19:36;2.60;;;1.92;;
32152;SDS011;18656;50.580;11.392;2024-02-16T10:22:09;2.40;;;1.50;;
32152;SDS011;18656;50.580;11.392;2024-02-16T10:24:37;2.63;;;1.85;;
32152;SDS011;18656;50.580;11.392;2024-02-16T10:27:06;1.70;;;1.60;;
32152;SDS011;18656;50.580;11.392;2024-02-16T10:29:33;1.80;;;1.70;;
32152;SDS011;18656;50.580;11.392;2024-02-16T10:32:01;1.50;;;1.40;;
32152;SDS011;18656;50.580;11.392;2024-02-16T10:34:28;1.92;;;1.77;;
32152;SDS011;18656;50.580;11.392;2024-02-16T10:36:56;3.30;;;1.85;;
32152;SDS011;18656;50.580;11.392;2024-02-16T10:39:24;1.95;;;1.80;;
32152;SDS011;18656;50.580;11.392;2024-02-16T10:41:52;4.57;;;1.58;;
32152;SDS011;18656;50.580;11.392;2024-02-16T10:44:20;1.98;;;1.75;;
32152;SDS011;18656;50.580;11.392;2024-02-16T10:46:47;3.03;;;1.85;;
32152;SDS011;18656;50.580;11.392;2024-02-16T10:49:14;2.83;;;2.28;;
32152;SDS011;18656;50.580;11.392;2024-02-16T10:51:47;2.40;;;2.20;;
32152;SDS011;18656;50.580;11.392;2024-02-16T10:54:17;2.70;;;2.50;;
32152;SDS011;18656;50.580;11.392;2024-02-16T10:56:45;2.40;;;2.17;;
32152;SDS011;18656;50.580;11.392;2024-02-16T10:59:12;3.25;;;2.45;;
32152;SDS011;18656;50.580;11.392;2024-02-16T11:01:40;2.97;;;2.20;;
32152;SDS011;18656;50.580;11.392;2024-02-16T11:04:08;2.75;;;2.22;;
32152;SDS011;18656;50.580;11.392;2024-02-16T11:06:49;3.97;;;2.40;;
32152;SDS011;18656;50.580;11.392;2024-02-16T11:11:51;2.22;;;2.10;;
32152;SDS011;18656;50.580;11.392;2024-02-16T11:14:20;9.40;;;3.00;;
32152;SDS011;18656;50.580;11.392;2024-02-16T11:16:49;5.00;;;2.50;;
32152;SDS011;18656;50.580;11.392;2024-02-16T11:19:21;2.60;;;2.10;;
32152;SDS011;18656;50.580;11.392;2024-02-16T11:21:58;2.42;;;2.22;;
32152;SDS011;18656;50.580;11.392;2024-02-16T11:24:29;2.05;;;1.95;;
32152;SDS011;18656;50.580;11.392;2024-02-16T11:26:58;3.13;;;2.22;;
32152;SDS011;18656;50.580;11.392;2024-02-16T11:29:25;1.90;;;1.60;;
32152;SDS011;18656;50.580;11.392;2024-02-16T11:31:52;2.15;;;1.95;;
32152;SDS011;18656;50.580;11.392;2024-02-16T11:34:23;2.63;;;2.00;;
32152;SDS011;18656;50.580;11.392;2024-02-16T11:36:56;4.88;;;1.80;;
32152;SDS011;18656;50.580;11.392;2024-02-16T11:39:24;5.60;;;2.08;;
32152;SDS011;18656;50.580;11.392;2024-02-16T11:42:09;2.60;;;2.13;;
32152;SDS011;18656;50.580;11.392;2024-02-16T11:44:37;5.90;;;2.53;;
32152;SDS011;18656;50.580;11.392;2024-02-16T11:47:07;4.75;;;1.73;;
32152;SDS011;18656;50.580;11.392;2024-02-16T11:49:38;2.75;;;2.00;;
32152;SDS011;18656;50.580;11.392;2024-02-16T11:52:07;19.67;;;3.47;;
32152;SDS011;18656;50.580;11.392;2024-02-16T11:54:34;3.42;;;2.00;;
32152;SDS011;18656;50.580;11.392;2024-02-16T11:57:03;5.30;;;2.50;;
32152;SDS011;18656;50.580;11.392;2024-02-16T11:59:31;2.53;;;1.67;;
32152;SDS011;18656;50.580;11.392;2024-02-16T12:01:58;2.88;;;2.15;;
32152;SDS011;18656;50.580;11.392;2024-02-16T12:04:26;5.75;;;2.50;;
32152;SDS011;18656;50.580;11.392;2024-02-16T12:06:57;4.40;;;2.00;;
32152;SDS011;18656;50.580;11.392;2024-02-16T12:09:30;4.45;;;2.38;;
32152;SDS011;18656;50.580;11.392;2024-02-16T12:12:01;4.53;;;1.90;;
32152;SDS011;18656;50.580;11.392;2024-02-16T12:14:29;2.63;;;2.42;;
32152;SDS011;18656;50.580;11.392;2024-02-16T12:16:59;5.70;;;2.28;;
32152;SDS011;18656;50.580;11.392;2024-02-16T12:19:26;1.83;;;1.73;;
32152;SDS011;18656;50.580;11.392;2024-02-16T12:21:54;4.57;;;2.28;;
32152;SDS011;18656;50.580;11.392;2024-02-16T12:24:23;3.67;;;2.03;;
32152;SDS011;18656;50.580;11.392;2024-02-16T12:26:51;2.25;;;1.85;;
32152;SDS011;18656;50.580;11.392;2024-02-16T12:29:18;2.80;;;1.80;;
32152;SDS011;18656;50.580;11.392;2024-02-16T12:31:45;2.83;;;1.98;;
32152;SDS011;18656;50.580;11.392;2024-02-16T12:34:15;4.00;;;2.10;;
32152;SDS011;18656;50.580;11.392;2024-02-16T12:36:43;2.08;;;1.98;;
32152;SDS011;18656;50.580;11.392;2024-02-16T12:39:16;2.05;;;1.80;;
32152;SDS011;18656;50.580;11.392;2024-02-16T12:41:43;3.58;;;2.25;;
32152;SDS011;18656;50.580;11.392;2024-02-16T12:44:11;2.60;;;2.20;;
32152;SDS011;18656;50.580;11.392;2024-02-16T12:46:38;7.03;;;1.80;;
32152;SDS011;18656;50.580;11.392;2024-02-16T12:49:06;2.58;;;2.08;;
32152;SDS011;18656;50.580;11.392;2024-02-16T12:51:33;2.67;;;1.90;;
32152;SDS011;18656;50.580;11.392;2024-02-16T12:54:01;3.47;;;2.75;;
32152;SDS011;18656;50.580;11.392;2024-02-16T12:56:32;3.40;;;3.10;;
32152;SDS011;18656;50.580;11.392;2024-02-16T12:58:59;2.90;;;1.90;;
32152;SDS011;18656;50.580;11.392;2024-02-16T13:01:28;6.68;;;1.98;;
32152;SDS011;18656;50.580;11.392;2024-02-16T13:03:55;3.90;;;1.77;;
32152;SDS011;18656;50.580;11.392;2024-02-16T13:06:23;5.95;;;2.10;;
32152;SDS011;18656;50.580;11.392;2024-02-16T13:08:54;2.70;;;1.95;;
32152;SDS011;18656;50.580;11.392;2024-02-16T13:11:22;3.80;;;2.10;;
32152;SDS011;18656;50.580;11.392;2024-02-16T13:13:49;3.92;;;2.08;;
32152;SDS011;18656;50.580;11.392;2024-02-16T13:16:17;2.50;;;2.20;;
32152;SDS011;18656;50.580;11.392;2024-02-16T13:18:45;3.90;;;2.40;;
32152;SDS011;18656;50.580;11.392;2024-02-16T13:21:12;2.08;;;1.90;;
32152;SDS011;18656;50.580;11.392;2024-02-16T13:23:42;11.73;;;2.45;;
32152;SDS011;18656;50.580;11.392;2024-02-16T13:26:09;3.72;;;2.38;;
32152;SDS011;18656;50.580;11.392;2024-02-16T13:28:36;3.28;;;2.20;;
32152;SDS011;18656;50.580;11.392;2024-02-16T13:31:07;2.63;;;2.28;;
32152;SDS011;18656;50.580;11.392;2024-02-16T13:33:36;2.63;;;1.88;;
32152;SDS011;18656;50.580;11.392;2024-02-16T13:36:04;2.60;;;1.98;;
32152;SDS011;18656;50.580;11.392;2024-02-16T13:38:31;3.03;;;1.73;;
32152;SDS011;18656;50.580;11.392;2024-02-16T13:40:59;3.67;;;1.70;;
32152;SDS011;18656;50.580;11.392;2024-02-16T13:43:26;1.75;;;1.60;;
32152;SDS011;18656;50.580;11.392;2024-02-16T13:45:54;2.75;;;1.73;;
32152;SDS011;18656;50.580;11.392;2024-02-16T13:48:24;4.05;;;1.92;;
32152;SDS011;18656;50.580;11.392;2024-02-16T13:50:53;2.25;;;1.77;;
32152;SDS011;18656;50.580;11.392;2024-02-16T13:53:23;2.88;;;1.80;;
32152;SDS011;18656;50.580;11.392;2024-02-16T13:55:50;2.67;;;1.80;;
32152;SDS011;18656;50.580;11.392;2024-02-16T13:58:17;3.33;;;1.90;;
32152;SDS011;18656;50.580;11.392;2024-02-16T14:00:44;3.75;;;1.83;;
32152;SDS011;18656;50.580;11.392;2024-02-16T14:03:13;2.80;;;2.00;;
32152;SDS011;18656;50.580;11.392;2024-02-16T14:05:41;3.70;;;2.00;;
32152;SDS011;18656;50.580;11.392;2024-02-16T14:08:11;5.97;;;2.22;;
32152;SDS011;18656;50.580;11.392;2024-02-16T14:10:39;1.77;;;1.67;;
32152;SDS011;18656;50.580;11.392;2024-02-16T14:13:06;4.43;;;1.98;;
32152;SDS011;18656;50.580;11.392;2024-02-16T14:15:33;3.75;;;1.60;;
32152;SDS011;18656;50.580;11.392;2024-02-16T14:18:01;4.28;;;2.00;;
32152;SDS011;18656;50.580;11.392;2024-02-16T14:20:39;3.78;;;2.10;;
32152;SDS011;18656;50.580;11.392;2024-02-16T14:23:06;2.65;;;1.90;;
32152;SDS011;18656;50.580;11.392;2024-02-16T14:25:35;3.95;;;2.75;;
32152;SDS011;18656;50.580;11.392;2024-02-16T14:28:04;5.88;;;4.65;;
32152;SDS011;18656;50.580;11.392;2024-02-16T14:30:32;4.47;;;2.63;;
32152;SDS011;18656;50.580;11.392;2024-02-16T14:33:00;3.42;;;2.13;;
32152;SDS011;18656;50.580;11.392;2024-02-16T14:35:31;2.88;;;1.70;;
32152;SDS011;18656;50.580;11.392;2024-02-16T14:38:03;5.93;;;2.05;;
32152;SDS011;18656;50.580;11.392;2024-02-16T14:40:31;2.05;;;1.83;;